createdAt,value
2019-01-19T00:01:31.561Z,4.23
2019-01-19T00:04:12.003Z,4.23
2019-01-19T00:06:49.414Z,6.83
2019-01-19T00:09:26.557Z,5.13
2019-01-19T00:12:06.706Z,4.60
2019-01-19T00:14:35.211Z,4.87
2019-01-19T00:17:17.928Z,4.37
2019-01-19T00:20:14.989Z,6.97
2019-01-19T00:22:49.165Z,4.83
2019-01-19T00:25:23.682Z,9.23
2019-01-19T00:28:07.075Z,5.70
2019-01-19T00:30:44.259Z,4.97
2019-01-19T00:33:27.796Z,5.47
2019-01-19T00:36:07.911Z,4.63
2019-01-19T00:38:59.101Z,5.10
2019-01-19T00:41:39.331Z,4.30
2019-01-19T00:44:13.740Z,4.20
2019-01-19T00:46:45.245Z,5.23
2019-01-19T00:49:16.635Z,5.10
2019-01-19T00:52:03.429Z,4.37
2019-01-19T00:54:34.983Z,6.67
2019-01-19T00:57:23.989Z,4.37
2019-01-19T00:59:53.588Z,7.93
2019-01-19T01:02:31.048Z,7.00
2019-01-19T01:05:14.416Z,4.20
2019-01-19T01:07:51.763Z,5.87
2019-01-19T01:10:25.717Z,6.23
2019-01-19T01:13:08.992Z,3.90
2019-01-19T01:15:55.199Z,7.43
2019-01-19T01:18:57.953Z,6.37
2019-01-19T01:21:48.691Z,4.53
2019-01-19T01:24:38.162Z,4.00
2019-01-19T01:27:09.717Z,4.67
2019-01-19T01:30:12.428Z,6.90
2019-01-19T01:32:52.948Z,4.17
2019-01-19T01:35:33.107Z,5.43
2019-01-19T01:38:07.436Z,3.17
2019-01-19T01:41:05.690Z,4.40
2019-01-19T01:43:37.225Z,4.03
2019-01-19T01:46:26.361Z,7.67
2019-01-19T01:49:00.616Z,4.10
2019-01-19T01:51:34.868Z,8.80
2019-01-19T01:54:09.154Z,4.40
2019-01-19T01:56:37.602Z,6.90
2019-01-19T01:59:09.108Z,4.17
2019-01-19T02:02:01.565Z,6.53
2019-01-19T02:04:51.039Z,5.43
2019-01-19T02:07:22.614Z,7.43
2019-01-19T02:10:00.042Z,5.77
2019-01-19T02:13:06.016Z,4.93
2019-01-19T02:15:52.196Z,3.37
2019-01-19T02:18:29.570Z,4.40
2019-01-19T02:21:10.030Z,4.13
2019-01-19T02:24:03.629Z,6.13
2019-01-19T02:26:38.062Z,5.50
2019-01-19T02:29:39.499Z,6.00
2019-01-19T02:32:28.611Z,4.23
2019-01-19T02:35:17.903Z,4.83
2019-01-19T02:37:49.469Z,7.67
2019-01-19T02:40:23.540Z,10.23
2019-01-19T02:43:06.660Z,4.30
2019-01-19T02:45:43.910Z,5.03
2019-01-19T02:48:36.153Z,7.77
2019-01-19T02:51:07.672Z,4.90
2019-01-19T02:54:00.909Z,6.47
2019-01-19T02:56:34.899Z,4.33
2019-01-19T02:59:12.381Z,4.80
2019-01-19T03:01:52.259Z,7.53
2019-01-19T03:04:41.785Z,6.20
2019-01-19T03:07:22.176Z,9.13
2019-01-19T03:10:06.264Z,9.80
2019-01-19T03:12:53.854Z,8.80
2019-01-19T03:15:44.410Z,6.33
2019-01-19T03:18:30.866Z,6.13
2019-01-19T03:21:27.586Z,6.43
2019-01-19T03:24:16.814Z,6.87
2019-01-19T03:26:51.285Z,6.50
2019-01-19T03:29:34.698Z,5.97
2019-01-19T03:32:21.221Z,6.90
2019-01-19T03:35:19.794Z,5.70
2019-01-19T03:37:56.995Z,5.87
2019-01-19T03:40:44.133Z,10.70
2019-01-19T03:43:40.985Z,9.13
2019-01-19T03:46:30.583Z,8.13
2019-01-19T03:49:13.962Z,5.20
2019-01-19T03:52:00.043Z,7.47
2019-01-19T03:54:52.192Z,5.43
2019-01-19T03:57:32.356Z,7.00
2019-01-19T04:00:21.705Z,6.23
2019-01-19T04:02:55.987Z,5.43
2019-01-19T04:05:30.037Z,8.87
2019-01-19T04:08:20.863Z,6.00
2019-01-19T04:10:55.128Z,4.40
2019-01-19T04:13:29.350Z,4.40
2019-01-19T04:16:06.584Z,5.27
2019-01-19T04:18:46.795Z,6.17
2019-01-19T04:21:26.829Z,6.37
2019-01-19T04:23:58.363Z,5.83
2019-01-19T04:26:29.851Z,8.50
2019-01-19T04:28:58.369Z,4.77
2019-01-19T04:31:26.947Z,4.87
2019-01-19T04:33:55.755Z,7.13
2019-01-19T04:36:24.344Z,5.57
2019-01-19T04:38:53.045Z,7.47
2019-01-19T04:41:21.481Z,6.30
2019-01-19T04:43:49.948Z,7.13
2019-01-19T04:46:18.451Z,5.37
2019-01-19T04:48:47.200Z,4.47
2019-01-19T04:51:15.905Z,6.80
2019-01-19T04:53:44.389Z,5.67
2019-01-19T04:56:12.911Z,6.43
2019-01-19T04:58:41.413Z,7.37
2019-01-19T05:01:09.877Z,5.90
2019-01-19T05:03:38.330Z,7.33
2019-01-19T05:06:12.145Z,6.33
2019-01-19T05:08:37.118Z,5.63
2019-01-19T05:11:05.645Z,6.40
2019-01-19T05:13:34.086Z,8.60
2019-01-19T05:16:02.563Z,4.47
2019-01-19T05:18:30.999Z,5.37
2019-01-19T05:20:59.735Z,5.33
2019-01-19T05:23:28.447Z,10.63
2019-01-19T05:25:56.939Z,9.57
2019-01-19T05:28:25.487Z,5.53
2019-01-19T05:30:53.964Z,7.17
2019-01-19T05:33:22.402Z,8.87
2019-01-19T05:35:50.855Z,9.30
2019-01-19T05:38:19.306Z,7.60
2019-01-19T05:40:47.807Z,5.93
2019-01-19T05:43:16.268Z,7.83
2019-01-19T05:45:44.803Z,8.40
2019-01-19T05:48:13.244Z,7.50
2019-01-19T05:50:41.754Z,5.67
2019-01-19T05:53:10.210Z,10.33
2019-01-19T05:55:38.646Z,9.53
2019-01-19T05:58:07.106Z,4.17
2019-01-19T06:00:35.571Z,5.40
2019-01-19T06:03:04.329Z,7.20
2019-01-19T06:05:32.771Z,4.33
2019-01-19T06:08:01.231Z,8.57
2019-01-19T06:10:29.679Z,4.70
2019-01-19T06:12:58.155Z,9.80
2019-01-19T06:15:26.589Z,9.10
2019-01-19T06:17:55.058Z,4.63
2019-01-19T06:20:23.560Z,5.93
2019-01-19T06:22:52.017Z,4.87
2019-01-19T06:25:20.469Z,9.70
2019-01-19T06:27:49.062Z,10.43
2019-01-19T06:30:22.333Z,11.13
2019-01-19T06:32:50.805Z,7.13
2019-01-19T06:35:19.388Z,8.73
2019-01-19T06:37:47.981Z,4.50
2019-01-19T06:40:18.190Z,6.37
2019-01-19T06:42:46.837Z,10.17
2019-01-19T06:45:18.351Z,6.10
2019-01-19T06:47:46.803Z,7.13
2019-01-19T06:50:16.649Z,6.57
2019-01-19T06:52:45.195Z,10.07
2019-01-19T06:55:25.617Z,9.97
2019-01-19T06:57:54.107Z,7.53
2019-01-19T07:00:22.551Z,8.03
2019-01-19T07:02:51.023Z,6.23
2019-01-19T07:05:19.610Z,7.43
2019-01-19T07:07:48.396Z,8.20
2019-01-19T07:10:22.416Z,10.83
2019-01-19T07:12:51.065Z,7.17
2019-01-19T07:15:19.580Z,6.13
2019-01-19T07:17:48.121Z,6.83
2019-01-19T07:20:22.087Z,8.03
2019-01-19T07:22:50.537Z,7.10
2019-01-19T07:25:18.982Z,5.43
2019-01-19T07:27:47.511Z,7.00
2019-01-19T07:30:17.088Z,10.57
2019-01-19T07:32:46.582Z,9.53
2019-01-19T07:35:15.658Z,7.93
2019-01-19T07:37:44.174Z,6.23
2019-01-19T07:40:17.746Z,5.67
2019-01-19T07:42:48.686Z,5.93
2019-01-19T07:45:17.278Z,4.83
2019-01-19T07:47:45.792Z,7.63
2019-01-19T07:50:16.876Z,9.13
2019-01-19T07:52:45.751Z,13.27
2019-01-19T07:55:15.955Z,17.80
2019-01-19T07:57:44.474Z,15.97
2019-01-19T08:00:24.942Z,15.17
2019-01-19T08:02:53.451Z,13.67
2019-01-19T08:05:21.897Z,6.10
2019-01-19T08:07:50.402Z,6.77
2019-01-19T08:10:19.798Z,7.30
2019-01-19T08:12:48.386Z,5.40
2019-01-19T08:15:22.093Z,4.93
2019-01-19T08:17:50.534Z,19.73
2019-01-19T08:20:19.085Z,25.57
2019-01-19T08:22:47.589Z,12.03
2019-01-19T08:25:16.203Z,8.27
2019-01-19T08:27:44.686Z,7.40
2019-01-19T08:30:18.417Z,8.27
2019-01-19T08:32:47.177Z,5.07
2019-01-19T08:35:17.254Z,5.80
2019-01-19T08:37:45.926Z,5.53
2019-01-19T08:40:16.915Z,5.33
2019-01-19T08:42:46.977Z,5.80
2019-01-19T08:45:16.872Z,9.20
2019-01-19T08:47:45.371Z,5.27
2019-01-19T08:50:14.049Z,4.30
2019-01-19T08:52:42.489Z,5.73
2019-01-19T08:55:11.009Z,6.63
2019-01-19T08:57:39.488Z,6.73
2019-01-19T09:00:13.811Z,5.10
2019-01-19T09:02:42.319Z,4.87
2019-01-19T09:05:11.721Z,5.43
2019-01-19T09:07:40.153Z,5.30
2019-01-19T09:10:16.678Z,5.20
2019-01-19T09:12:45.197Z,3.83
2019-01-19T09:15:16.729Z,4.13
2019-01-19T09:17:45.311Z,7.03
2019-01-19T09:20:15.897Z,5.43
2019-01-19T09:22:44.545Z,3.93
2019-01-19T09:25:14.734Z,5.47
2019-01-19T09:27:43.244Z,8.43
2019-01-19T09:30:17.153Z,6.63
2019-01-19T09:32:46.002Z,7.10
2019-01-19T09:35:14.526Z,3.83
2019-01-19T09:37:42.965Z,3.47
2019-01-19T09:40:14.272Z,4.97
2019-01-19T09:42:42.766Z,4.53
2019-01-19T09:45:17.178Z,3.80
2019-01-19T09:47:45.622Z,4.13
2019-01-19T09:50:21.178Z,4.50
2019-01-19T09:52:49.718Z,5.20
2019-01-19T09:55:18.226Z,3.40
2019-01-19T09:57:46.859Z,5.43
2019-01-19T10:00:21.128Z,5.53
2019-01-19T10:02:49.653Z,2.73
2019-01-19T10:05:23.096Z,3.43
2019-01-19T10:07:52.044Z,7.00
2019-01-19T10:10:20.574Z,6.67
2019-01-19T10:12:49.034Z,3.50
2019-01-19T10:15:18.599Z,3.87
2019-01-19T10:17:47.139Z,2.87
2019-01-19T10:20:18.535Z,3.93
2019-01-19T10:22:47.258Z,2.83
2019-01-19T10:25:16.649Z,3.50
2019-01-19T10:27:45.322Z,4.57
2019-01-19T10:30:24.549Z,5.37
2019-01-19T10:32:53.156Z,4.70
2019-01-19T10:35:21.669Z,3.90
2019-01-19T10:37:56.292Z,5.63
2019-01-19T10:40:20.534Z,6.13
2019-01-19T10:42:48.996Z,5.27
2019-01-19T10:45:26.336Z,3.93
2019-01-19T10:47:54.799Z,3.33
2019-01-19T10:50:23.384Z,5.03
2019-01-19T10:52:52.015Z,3.80
2019-01-19T10:55:22.469Z,5.73
2019-01-19T10:57:51.106Z,4.73
2019-01-19T11:00:25.129Z,5.20
2019-01-19T11:02:54.067Z,4.37
2019-01-19T11:05:22.792Z,5.03
2019-01-19T11:07:51.463Z,4.57
2019-01-19T11:10:22.251Z,5.13
2019-01-19T11:12:50.969Z,4.57
2019-01-19T11:15:19.643Z,4.27
2019-01-19T11:17:48.219Z,2.60
2019-01-19T11:20:18.843Z,4.30
2019-01-19T11:22:47.426Z,3.57
2019-01-19T11:25:16.092Z,7.67
2019-01-19T11:27:44.725Z,3.50
2019-01-19T11:30:16.423Z,5.47
2019-01-19T11:32:44.952Z,3.77
2019-01-19T11:35:14.270Z,3.37
2019-01-19T11:37:42.799Z,2.97
2019-01-19T11:40:14.329Z,3.37
2019-01-19T11:42:42.793Z,3.57
2019-01-19T11:45:16.620Z,3.73
2019-01-19T11:47:45.065Z,5.73
2019-01-19T11:50:15.213Z,2.70
2019-01-19T11:52:43.666Z,4.80
2019-01-19T11:55:16.298Z,4.53
2019-01-19T11:57:44.752Z,5.10
2019-01-19T12:00:18.288Z,10.80
2019-01-19T12:02:46.880Z,3.33
2019-01-19T12:05:15.447Z,2.73
2019-01-19T12:07:44.175Z,4.43
2019-01-19T12:10:26.468Z,4.93
2019-01-19T12:12:54.935Z,3.83
2019-01-19T12:15:23.474Z,5.77
2019-01-19T12:17:51.906Z,5.53
2019-01-19T12:20:26.280Z,4.13
2019-01-19T12:22:54.786Z,5.53
2019-01-19T12:25:24.670Z,6.90
2019-01-19T12:27:53.266Z,4.23
2019-01-19T12:30:32.694Z,8.10
2019-01-19T12:33:01.207Z,6.27
2019-01-19T12:35:29.887Z,4.20
2019-01-19T12:37:59.471Z,2.50
2019-01-19T12:40:29.718Z,4.43
2019-01-19T12:43:09.895Z,4.00
2019-01-19T12:45:47.736Z,4.87
2019-01-19T12:48:16.163Z,4.87
2019-01-19T12:50:44.631Z,4.23
2019-01-19T12:53:13.271Z,7.07
2019-01-19T12:55:41.797Z,3.53
2019-01-19T12:58:10.770Z,5.03
2019-01-19T13:00:39.309Z,4.57
2019-01-19T13:03:08.679Z,7.13
2019-01-19T13:05:41.231Z,4.67
2019-01-19T13:08:15.797Z,4.10
2019-01-19T13:10:50.168Z,7.20
2019-01-19T13:13:18.757Z,2.60
2019-01-19T13:15:50.351Z,4.13
2019-01-19T13:18:40.983Z,4.80
2019-01-19T13:21:28.613Z,6.70
2019-01-19T13:24:12.201Z,7.47
2019-01-19T13:26:43.747Z,4.10
2019-01-19T13:29:31.715Z,4.07
2019-01-19T13:32:20.679Z,3.77
2019-01-19T13:35:00.991Z,7.00
2019-01-19T13:37:44.409Z,2.73
2019-01-19T13:40:47.529Z,3.20
2019-01-19T13:43:30.971Z,10.40
2019-01-19T13:46:11.387Z,3.83
2019-01-19T13:48:48.611Z,4.50
2019-01-19T13:51:28.828Z,3.20
2019-01-19T13:54:03.275Z,3.33
2019-01-19T13:56:54.208Z,3.23
2019-01-19T13:59:26.066Z,7.03
2019-01-19T14:02:22.778Z,4.50
2019-01-19T14:05:00.492Z,3.97
2019-01-19T14:08:05.019Z,9.80
2019-01-19T14:10:42.206Z,7.67
2019-01-19T14:13:16.382Z,3.50
2019-01-19T14:15:47.913Z,3.03
2019-01-19T14:18:25.131Z,3.73
2019-01-19T14:21:16.235Z,6.47
2019-01-19T14:24:02.754Z,5.30
2019-01-19T14:26:37.225Z,5.57
2019-01-19T14:29:43.230Z,4.63
2019-01-19T14:32:20.471Z,1.27
2019-01-19T14:35:15.812Z,4.63
2019-01-19T14:37:56.007Z,2.67
2019-01-19T14:40:27.520Z,7.97
2019-01-19T14:43:13.862Z,3.23
2019-01-19T14:45:54.103Z,3.73
2019-01-19T14:48:40.433Z,4.00
2019-01-19T14:51:17.712Z,3.30
2019-01-19T14:53:52.129Z,5.03
2019-01-19T14:56:29.150Z,4.23
2019-01-19T14:59:17.377Z,4.87
2019-01-19T15:02:06.680Z,2.80
2019-01-19T15:04:40.764Z,5.73
2019-01-19T15:07:17.941Z,6.57
2019-01-19T15:09:55.141Z,5.53
2019-01-19T15:12:32.327Z,3.57
2019-01-19T15:15:15.528Z,13.57
2019-01-19T15:18:04.637Z,6.47
2019-01-19T15:20:56.847Z,3.77
2019-01-19T15:23:46.270Z,6.37
2019-01-19T15:26:29.695Z,8.43
2019-01-19T15:29:01.202Z,4.27
2019-01-19T15:31:33.062Z,4.50
2019-01-19T15:34:21.091Z,4.23
2019-01-19T15:37:04.690Z,5.37
2019-01-19T15:39:36.287Z,3.37
2019-01-19T15:42:16.707Z,3.00
2019-01-19T15:45:06.378Z,4.73
2019-01-19T15:47:37.935Z,7.13
2019-01-19T15:50:30.110Z,3.43
2019-01-19T15:53:07.194Z,3.17
2019-01-19T15:55:47.525Z,5.97
2019-01-19T15:58:33.774Z,5.93
2019-01-19T16:01:17.105Z,5.47
2019-01-19T16:03:48.644Z,7.60
2019-01-19T16:06:34.974Z,7.13
2019-01-19T16:09:22.634Z,9.07
2019-01-19T16:11:57.108Z,6.07
2019-01-19T16:14:45.251Z,4.67
2019-01-19T16:17:16.769Z,6.83
2019-01-19T16:19:51.016Z,8.07
2019-01-19T16:22:43.435Z,6.10
2019-01-19T16:25:23.834Z,6.03
2019-01-19T16:28:11.803Z,4.23
2019-01-19T16:31:08.975Z,5.10
2019-01-19T16:33:52.354Z,4.63
2019-01-19T16:36:40.363Z,4.87
2019-01-19T16:39:14.722Z,5.47
2019-01-19T16:42:00.940Z,6.63
2019-01-19T16:44:41.317Z,3.47
2019-01-19T16:47:24.698Z,8.13
2019-01-19T16:50:21.547Z,6.53
2019-01-19T16:52:58.913Z,7.23
2019-01-19T16:55:45.038Z,4.87
2019-01-19T16:58:19.657Z,7.33
2019-01-19T17:00:56.963Z,5.00
2019-01-19T17:03:37.893Z,4.60
2019-01-19T17:06:40.915Z,6.30
2019-01-19T17:09:33.171Z,9.30
2019-01-19T17:12:12.510Z,6.53
2019-01-19T17:14:58.948Z,7.13
2019-01-19T17:17:48.609Z,6.73
2019-01-19T17:20:26.018Z,8.53
2019-01-19T17:23:06.408Z,5.13
2019-01-19T17:25:52.289Z,8.03
2019-01-19T17:28:40.237Z,8.63
2019-01-19T17:31:26.451Z,7.73
2019-01-19T17:34:03.787Z,8.23
2019-01-19T17:36:47.311Z,8.87
2019-01-19T17:39:45.693Z,10.83
2019-01-19T17:42:20.338Z,10.57
2019-01-19T17:45:20.209Z,19.30
2019-01-19T17:48:19.828Z,11.40
2019-01-19T17:51:05.999Z,10.27
2019-01-19T17:53:46.267Z,13.43
2019-01-19T17:56:32.832Z,11.77
2019-01-19T17:59:23.666Z,12.47
2019-01-19T18:01:57.735Z,7.53
2019-01-19T18:04:41.230Z,15.53
2019-01-19T18:07:33.592Z,8.70
2019-01-19T18:10:17.104Z,12.13
2019-01-19T18:12:57.686Z,13.47
2019-01-19T18:15:40.970Z,13.80
2019-01-19T18:18:21.282Z,17.87
2019-01-19T18:21:05.132Z,7.63
2019-01-19T18:23:39.555Z,12.20
2019-01-19T18:26:39.529Z,12.37
2019-01-19T18:29:33.349Z,9.00
2019-01-19T18:32:04.927Z,12.10
2019-01-19T18:34:55.822Z,10.10
2019-01-19T18:37:47.991Z,12.93
2019-01-19T18:40:28.429Z,11.87
2019-01-19T18:43:08.759Z,11.17
2019-01-19T18:45:49.276Z,9.03
2019-01-19T18:48:23.638Z,12.87
2019-01-19T18:51:28.276Z,8.23
2019-01-19T18:54:25.393Z,10.27
2019-01-19T18:57:06.003Z,9.03
2019-01-19T18:59:43.493Z,10.90
2019-01-19T19:02:20.579Z,11.00
2019-01-19T19:05:00.772Z,14.50
2019-01-19T19:07:45.201Z,9.50
2019-01-19T19:10:22.570Z,11.77
2019-01-19T19:13:09.263Z,17.70
2019-01-19T19:16:00.352Z,9.57
2019-01-19T19:18:50.155Z,11.87
2019-01-19T19:21:47.410Z,14.77
2019-01-19T19:24:33.999Z,18.40
2019-01-19T19:27:21.766Z,16.27
2019-01-19T19:29:59.274Z,12.03
2019-01-19T19:32:57.878Z,16.23
2019-01-19T19:35:53.100Z,13.80
2019-01-19T19:38:43.971Z,18.40
2019-01-19T19:41:48.422Z,12.43
2019-01-19T19:44:36.193Z,12.63
2019-01-19T19:47:28.688Z,12.77
2019-01-19T19:50:19.406Z,13.87
2019-01-19T19:52:47.960Z,15.30
2019-01-19T19:55:15.322Z,13.80
2019-01-19T19:57:43.804Z,16.53
2019-01-19T20:00:12.552Z,16.53
2019-01-19T20:02:41.452Z,18.27
2019-01-19T20:05:10.449Z,12.53
2019-01-19T20:07:38.981Z,20.70
2019-01-19T20:10:16.965Z,18.27
2019-01-19T20:12:42.838Z,15.73
2019-01-19T20:15:11.551Z,17.33
2019-01-19T20:17:40.109Z,19.80
2019-01-19T20:20:10.502Z,14.17
2019-01-19T20:22:38.953Z,13.53
2019-01-19T20:25:08.162Z,13.80
2019-01-19T20:27:36.703Z,18.60
2019-01-19T20:30:10.996Z,14.90
2019-01-19T20:32:39.443Z,12.33
2019-01-19T20:35:08.694Z,15.77
2019-01-19T20:37:37.385Z,16.63
2019-01-19T20:40:08.669Z,13.13
2019-01-19T20:42:37.407Z,11.60
2019-01-19T20:45:11.459Z,20.87
2019-01-19T20:47:39.952Z,17.53
2019-01-19T20:50:11.085Z,12.77
2019-01-19T20:52:39.808Z,12.33
2019-01-19T20:55:10.296Z,23.33
2019-01-19T20:57:38.835Z,15.63
2019-01-19T21:00:18.653Z,12.33
2019-01-19T21:02:47.262Z,11.57
2019-01-19T21:05:15.896Z,12.60
2019-01-19T21:07:44.343Z,14.40
2019-01-19T21:10:13.090Z,14.97
2019-01-19T21:12:41.577Z,13.80
2019-01-19T21:15:15.387Z,19.20
2019-01-19T21:17:43.989Z,15.70
2019-01-19T21:20:15.013Z,16.20
2019-01-19T21:22:43.528Z,15.30
2019-01-19T21:25:13.345Z,19.43
2019-01-19T21:27:41.863Z,10.20
2019-01-19T21:30:13.280Z,17.33
2019-01-19T21:32:41.749Z,16.40
2019-01-19T21:35:10.341Z,16.23
2019-01-19T21:37:38.865Z,14.20
2019-01-19T21:40:10.444Z,17.33
2019-01-19T21:42:38.888Z,14.70
2019-01-19T21:45:10.416Z,13.07
2019-01-19T21:47:38.880Z,15.30
2019-01-19T21:50:09.464Z,14.50
2019-01-19T21:52:38.159Z,13.20
2019-01-19T21:55:08.760Z,16.03
2019-01-19T21:57:37.270Z,15.73
2019-01-19T22:00:11.573Z,13.03
2019-01-19T22:02:40.437Z,15.93
2019-01-19T22:05:09.057Z,16.43
2019-01-19T22:07:37.534Z,16.20
2019-01-19T22:10:09.056Z,14.30
2019-01-19T22:12:37.511Z,15.37
2019-01-19T22:15:09.352Z,11.23
2019-01-19T22:17:39.749Z,10.57
2019-01-19T22:20:10.732Z,13.93
2019-01-19T22:22:39.202Z,14.90
2019-01-19T22:25:08.285Z,9.60
2019-01-19T22:27:37.981Z,13.20
2019-01-19T22:30:12.328Z,12.97
2019-01-19T22:32:40.805Z,12.57
2019-01-19T22:35:10.186Z,12.00
2019-01-19T22:37:38.735Z,11.67
2019-01-19T22:40:13.386Z,14.73
2019-01-19T22:42:42.095Z,11.07
2019-01-19T22:45:12.581Z,9.63
2019-01-19T22:47:41.039Z,10.23
2019-01-19T22:50:14.607Z,12.10
2019-01-19T22:52:43.100Z,14.80
2019-01-19T22:55:12.279Z,13.07
2019-01-19T22:57:40.747Z,11.27
2019-01-19T23:00:30.391Z,13.47
2019-01-19T23:02:58.941Z,11.77
2019-01-19T23:05:27.455Z,11.83
2019-01-19T23:07:55.915Z,12.00
2019-01-19T23:10:24.461Z,10.40
2019-01-19T23:12:52.927Z,11.97
2019-01-19T23:15:21.371Z,11.37
2019-01-19T23:17:49.869Z,12.43
2019-01-19T23:20:18.311Z,9.43
2019-01-19T23:22:46.771Z,14.17
2019-01-19T23:25:15.285Z,12.77
2019-01-19T23:27:43.866Z,17.77
2019-01-19T23:30:14.846Z,10.50
2019-01-19T23:32:43.319Z,10.23
2019-01-19T23:35:11.915Z,10.43
2019-01-19T23:37:40.365Z,13.40
2019-01-19T23:40:11.849Z,10.50
2019-01-19T23:42:47.158Z,14.63
2019-01-19T23:45:11.086Z,13.00
2019-01-19T23:47:39.690Z,13.80
2019-01-19T23:50:09.672Z,11.90
2019-01-19T23:52:38.173Z,8.93
2019-01-19T23:55:06.878Z,15.57
2019-01-19T23:57:35.642Z,14.10
